sensor_id;sensor_type;location;lat;lon;timestamp;pressure;altitude;pressure_sealevel;temperature;humidity
26436;BME280;15351;52.408;16.826;2022-12-07T00:01:42;100346.66;;;5.29;82.04
26436;BME280;15351;52.408;16.826;2022-12-07T00:04:12;100341.20;;;5.44;81.99
26436;BME280;15351;52.408;16.826;2022-12-07T00:06:42;100344.81;;;5.39;81.57
26436;BME280;15351;52.408;16.826;2022-12-07T00:09:16;100344.81;;;5.39;81.57
26436;BME280;15351;52.408;16.826;2022-12-07T00:11:43;100344.12;;;5.37;81.52
26436;BME280;15351;52.408;16.826;2022-12-07T00:14:12;100342.48;;;5.40;81.90
26436;BME280;15351;52.408;16.826;2022-12-07T00:16:42;100342.81;;;5.50;82.02
26436;BME280;15351;52.408;16.826;2022-12-07T00:19:11;100339.50;;;5.52;81.85
26436;BME280;15351;52.408;16.826;2022-12-07T00:21:39;100343.95;;;5.61;81.66
26436;BME280;15351;52.408;16.826;2022-12-07T00:24:06;100338.68;;;5.65;81.49
26436;BME280;15351;52.408;16.826;2022-12-07T00:26:35;100336.84;;;5.65;81.39
26436;BME280;15351;52.408;16.826;2022-12-07T00:29:07;100336.08;;;5.59;81.29
26436;BME280;15351;52.408;16.826;2022-12-07T00:31:38;100337.31;;;5.51;81.33
26436;BME280;15351;52.408;16.826;2022-12-07T00:34:06;100340.34;;;5.52;81.45
26436;BME280;15351;52.408;16.826;2022-12-07T00:36:34;100334.44;;;5.62;81.70
26436;BME280;15351;52.408;16.826;2022-12-07T00:39:03;100334.09;;;5.71;81.36
26436;BME280;15351;52.408;16.826;2022-12-07T00:41:30;100327.26;;;5.72;81.18
26436;BME280;15351;52.408;16.826;2022-12-07T00:43:58;100319.80;;;5.66;81.12
26436;BME280;15351;52.408;16.826;2022-12-07T00:46:25;100325.88;;;5.68;81.20
26436;BME280;15351;52.408;16.826;2022-12-07T00:48:53;100322.45;;;5.53;80.92
26436;BME280;15351;52.408;16.826;2022-12-07T00:51:23;100327.91;;;5.48;81.27
26436;BME280;15351;52.408;16.826;2022-12-07T00:53:51;100324.94;;;5.50;81.60
26436;BME280;15351;52.408;16.826;2022-12-07T00:56:22;100326.17;;;5.56;81.41
26436;BME280;15351;52.408;16.826;2022-12-07T00:58:56;100332.31;;;5.52;81.30
26436;BME280;15351;52.408;16.826;2022-12-07T01:01:28;100327.70;;;5.58;81.58
26436;BME280;15351;52.408;16.826;2022-12-07T01:03:57;100325.53;;;5.67;81.61
26436;BME280;15351;52.408;16.826;2022-12-07T01:06:24;100316.91;;;5.73;81.60
26436;BME280;15351;52.408;16.826;2022-12-07T01:08:51;100319.73;;;5.85;81.49
26436;BME280;15351;52.408;16.826;2022-12-07T01:11:22;100316.11;;;5.90;81.22
26436;BME280;15351;52.408;16.826;2022-12-07T01:13:51;100319.55;;;5.95;81.12
26436;BME280;15351;52.408;16.826;2022-12-07T01:16:22;100316.03;;;5.95;80.86
26436;BME280;15351;52.408;16.826;2022-12-07T01:18:51;100318.82;;;5.94;80.76
26436;BME280;15351;52.408;16.826;2022-12-07T01:21:23;100311.02;;;5.83;80.60
26436;BME280;15351;52.408;16.826;2022-12-07T01:23:51;100314.61;;;5.78;80.96
26436;BME280;15351;52.408;16.826;2022-12-07T01:26:21;100312.36;;;5.83;81.05
26436;BME280;15351;52.408;16.826;2022-12-07T01:28:50;100315.80;;;5.93;80.86
26436;BME280;15351;52.408;16.826;2022-12-07T01:31:20;100311.29;;;5.93;80.53
26436;BME280;15351;52.408;16.826;2022-12-07T01:33:51;100314.31;;;5.94;80.83
26436;BME280;15351;52.408;16.826;2022-12-07T01:36:24;100306.70;;;5.99;80.82
26436;BME280;15351;52.408;16.826;2022-12-07T01:38:58;100309.38;;;5.99;80.65
26436;BME280;15351;52.408;16.826;2022-12-07T01:41:31;100309.34;;;5.95;80.41
26436;BME280;15351;52.408;16.826;2022-12-07T01:44:24;100313.12;;;5.93;80.42
26436;BME280;15351;52.408;16.826;2022-12-07T01:47:00;100318.20;;;5.95;80.45
26436;BME280;15351;52.408;16.826;2022-12-07T01:49:47;100309.03;;;5.98;80.62
26436;BME280;15351;52.408;16.826;2022-12-07T01:52:24;100304.86;;;5.99;80.45
26436;BME280;15351;52.408;16.826;2022-12-07T01:54:56;100300.23;;;6.05;80.67
26436;BME280;15351;52.408;16.826;2022-12-07T01:57:26;100299.00;;;6.13;80.43
26436;BME280;15351;52.408;16.826;2022-12-07T01:59:53;100290.66;;;6.16;80.21
26436;BME280;15351;52.408;16.826;2022-12-07T02:02:25;100294.98;;;6.13;80.19
26436;BME280;15351;52.408;16.826;2022-12-07T02:04:59;100286.64;;;6.16;80.20
26436;BME280;15351;52.408;16.826;2022-12-07T02:07:28;100283.97;;;6.16;80.13
26436;BME280;15351;52.408;16.826;2022-12-07T02:09:56;100286.30;;;6.15;79.87
26436;BME280;15351;52.408;16.826;2022-12-07T02:12:23;100284.27;;;6.13;79.84
26436;BME280;15351;52.408;16.826;2022-12-07T02:14:50;100285.64;;;6.17;79.91
26436;BME280;15351;52.408;16.826;2022-12-07T02:17:27;100290.40;;;6.10;79.45
26436;BME280;15351;52.408;16.826;2022-12-07T02:20:11;100285.78;;;5.98;79.54
26436;BME280;15351;52.408;16.826;2022-12-07T02:23:07;100287.66;;;5.89;79.67
26436;BME280;15351;52.408;16.826;2022-12-07T02:31:55;100277.64;;;5.91;80.20
26436;BME280;15351;52.408;16.826;2022-12-07T02:34:44;100267.97;;;5.94;79.91
26436;BME280;15351;52.408;16.826;2022-12-07T02:37:34;100271.80;;;5.91;79.76
26436;BME280;15351;52.408;16.826;2022-12-07T02:42:59;100262.50;;;5.82;79.73
26436;BME280;15351;52.408;16.826;2022-12-07T02:45:42;100251.19;;;5.74;79.80
26436;BME280;15351;52.408;16.826;2022-12-07T02:48:12;100267.28;;;5.78;79.88
26436;BME280;15351;52.408;16.826;2022-12-07T02:50:48;100257.80;;;5.80;79.94
26436;BME280;15351;52.408;16.826;2022-12-07T02:53:36;100259.06;;;5.76;79.73
26436;BME280;15351;52.408;16.826;2022-12-07T03:04:33;100268.20;;;5.60;80.15
26436;BME280;15351;52.408;16.826;2022-12-07T03:07:11;100269.89;;;5.61;80.02
26436;BME280;15351;52.408;16.826;2022-12-07T03:09:41;100265.83;;;5.57;79.86
26436;BME280;15351;52.408;16.826;2022-12-07T03:12:17;100266.44;;;5.51;79.87
26436;BME280;15351;52.408;16.826;2022-12-07T03:14:49;100262.58;;;5.50;80.13
26436;BME280;15351;52.408;16.826;2022-12-07T03:17:22;100272.33;;;5.55;80.16
26436;BME280;15351;52.408;16.826;2022-12-07T03:19:54;100271.14;;;5.53;80.13
26436;BME280;15351;52.408;16.826;2022-12-07T03:22:23;100268.13;;;5.52;80.20
26436;BME280;15351;52.408;16.826;2022-12-07T03:24:57;100273.86;;;5.57;79.97
26436;BME280;15351;52.408;16.826;2022-12-07T03:27:42;100273.12;;;5.51;79.81
26436;BME280;15351;52.408;16.826;2022-12-07T03:30:20;100274.77;;;5.49;79.54
26436;BME280;15351;52.408;16.826;2022-12-07T03:33:00;100269.64;;;5.42;79.66
26436;BME280;15351;52.408;16.826;2022-12-07T03:35:35;100271.44;;;5.50;80.00
26436;BME280;15351;52.408;16.826;2022-12-07T03:38:19;100270.61;;;5.63;79.87
26436;BME280;15351;52.408;16.826;2022-12-07T03:40:59;100270.42;;;5.74;79.74
26436;BME280;15351;52.408;16.826;2022-12-07T03:43:28;100260.70;;;5.86;79.48
26436;BME280;15351;52.408;16.826;2022-12-07T03:52:30;100263.02;;;5.98;79.13
26436;BME280;15351;52.408;16.826;2022-12-07T03:55:18;100264.09;;;6.05;78.63
26436;BME280;15351;52.408;16.826;2022-12-07T03:57:58;100260.92;;;6.06;78.44
26436;BME280;15351;52.408;16.826;2022-12-07T04:00:26;100252.66;;;5.99;78.43
26436;BME280;15351;52.408;16.826;2022-12-07T04:02:53;100253.31;;;5.97;78.41
26436;BME280;15351;52.408;16.826;2022-12-07T04:05:23;100253.05;;;5.91;78.41
26436;BME280;15351;52.408;16.826;2022-12-07T04:07:49;100254.36;;;5.87;78.40
26436;BME280;15351;52.408;16.826;2022-12-07T04:10:17;100257.49;;;5.83;78.36
26436;BME280;15351;52.408;16.826;2022-12-07T04:12:44;100258.15;;;5.81;78.56
26436;BME280;15351;52.408;16.826;2022-12-07T04:15:10;100257.54;;;5.73;78.56
26436;BME280;15351;52.408;16.826;2022-12-07T04:17:38;100254.14;;;5.68;78.80
26436;BME280;15351;52.408;16.826;2022-12-07T04:20:07;100251.95;;;5.67;78.74
26436;BME280;15351;52.408;16.826;2022-12-07T04:22:36;100246.16;;;5.62;78.82
26436;BME280;15351;52.408;16.826;2022-12-07T04:25:06;100237.06;;;5.55;78.70
26436;BME280;15351;52.408;16.826;2022-12-07T04:27:32;100235.27;;;5.60;79.03
26436;BME280;15351;52.408;16.826;2022-12-07T04:29:59;100233.39;;;5.56;78.84
26436;BME280;15351;52.408;16.826;2022-12-07T04:32:26;100230.75;;;5.47;78.89
26436;BME280;15351;52.408;16.826;2022-12-07T04:34:53;100232.66;;;5.50;79.19
26436;BME280;15351;52.408;16.826;2022-12-07T04:37:19;100238.70;;;5.52;79.03
26436;BME280;15351;52.408;16.826;2022-12-07T04:39:48;100236.48;;;5.48;78.79
26436;BME280;15351;52.408;16.826;2022-12-07T04:42:16;100245.12;;;5.46;78.85
26436;BME280;15351;52.408;16.826;2022-12-07T04:44:42;100245.53;;;5.38;78.81
26436;BME280;15351;52.408;16.826;2022-12-07T04:47:09;100239.80;;;5.33;79.11
26436;BME280;15351;52.408;16.826;2022-12-07T04:49:36;100226.61;;;5.35;79.20
26436;BME280;15351;52.408;16.826;2022-12-07T04:52:03;100229.78;;;5.35;79.16
26436;BME280;15351;52.408;16.826;2022-12-07T04:54:30;100227.11;;;5.35;79.29
26436;BME280;15351;52.408;16.826;2022-12-07T04:56:58;100225.77;;;5.35;79.16
26436;BME280;15351;52.408;16.826;2022-12-07T04:59:25;100225.84;;;5.29;79.31
26436;BME280;15351;52.408;16.826;2022-12-07T05:01:52;100217.63;;;5.27;79.41
26436;BME280;15351;52.408;16.826;2022-12-07T05:04:18;100215.41;;;5.23;79.46
26436;BME280;15351;52.408;16.826;2022-12-07T05:06:46;100215.41;;;5.23;79.62
26436;BME280;15351;52.408;16.826;2022-12-07T05:09:12;100209.27;;;5.26;79.57
26436;BME280;15351;52.408;16.826;2022-12-07T05:11:39;100210.30;;;5.29;79.69
26436;BME280;15351;52.408;16.826;2022-12-07T05:14:17;100201.29;;;5.30;79.43
26436;BME280;15351;52.408;16.826;2022-12-07T05:16:45;100196.55;;;5.24;79.56
26436;BME280;15351;52.408;16.826;2022-12-07T05:19:13;100203.58;;;5.25;79.80
26436;BME280;15351;52.408;16.826;2022-12-07T05:21:41;100202.58;;;5.26;79.68
26436;BME280;15351;52.408;16.826;2022-12-07T05:24:10;100204.80;;;5.30;79.78
26436;BME280;15351;52.408;16.826;2022-12-07T05:26:38;100200.10;;;5.28;79.69
26436;BME280;15351;52.408;16.826;2022-12-07T05:29:05;100202.13;;;5.30;79.70
26436;BME280;15351;52.408;16.826;2022-12-07T05:31:34;100198.72;;;5.25;79.68
26436;BME280;15351;52.408;16.826;2022-12-07T05:34:02;100194.91;;;5.27;79.95
26436;BME280;15351;52.408;16.826;2022-12-07T05:36:29;100203.97;;;5.30;79.75
26436;BME280;15351;52.408;16.826;2022-12-07T05:38:58;100202.93;;;5.27;79.67
26436;BME280;15351;52.408;16.826;2022-12-07T05:41:25;100201.74;;;5.26;79.67
26436;BME280;15351;52.408;16.826;2022-12-07T05:44:10;100201.85;;;5.20;79.82
26436;BME280;15351;52.408;16.826;2022-12-07T05:46:36;100207.20;;;5.20;79.91
26436;BME280;15351;52.408;16.826;2022-12-07T05:49:03;100200.52;;;5.20;80.06
26436;BME280;15351;52.408;16.826;2022-12-07T05:51:29;100201.85;;;5.20;80.02
26436;BME280;15351;52.408;16.826;2022-12-07T05:53:55;100195.12;;;5.16;80.00
26436;BME280;15351;52.408;16.826;2022-12-07T05:56:21;100201.16;;;5.18;80.06
26436;BME280;15351;52.408;16.826;2022-12-07T05:58:48;100193.66;;;5.08;79.99
26436;BME280;15351;52.408;16.826;2022-12-07T06:01:34;100192.63;;;5.06;80.20
26436;BME280;15351;52.408;16.826;2022-12-07T06:04:00;100200.00;;;5.07;80.34
26436;BME280;15351;52.408;16.826;2022-12-07T06:06:27;100194.41;;;5.14;80.46
26436;BME280;15351;52.408;16.826;2022-12-07T06:08:53;100187.87;;;5.13;80.16
26436;BME280;15351;52.408;16.826;2022-12-07T06:11:20;100192.72;;;5.13;80.18
26436;BME280;15351;52.408;16.826;2022-12-07T06:14:06;100193.47;;;5.06;80.01
26436;BME280;15351;52.408;16.826;2022-12-07T06:16:35;100191.09;;;5.03;80.31
26436;BME280;15351;52.408;16.826;2022-12-07T06:19:01;100195.26;;;5.02;80.33
26436;BME280;15351;52.408;16.826;2022-12-07T06:21:28;100198.32;;;5.06;80.54
26436;BME280;15351;52.408;16.826;2022-12-07T06:23:54;100201.23;;;5.13;80.56
26436;BME280;15351;52.408;16.826;2022-12-07T06:26:21;100199.41;;;5.13;80.21
26436;BME280;15351;52.408;16.826;2022-12-07T06:28:48;100194.02;;;5.09;80.22
26436;BME280;15351;52.408;16.826;2022-12-07T06:31:16;100193.32;;;5.07;80.30
26436;BME280;15351;52.408;16.826;2022-12-07T06:33:43;100188.32;;;5.08;80.39
26436;BME280;15351;52.408;16.826;2022-12-07T06:36:10;100191.48;;;5.08;80.42
26436;BME280;15351;52.408;16.826;2022-12-07T06:38:37;100187.17;;;5.11;80.43
26436;BME280;15351;52.408;16.826;2022-12-07T06:41:04;100189.40;;;5.15;80.30
26436;BME280;15351;52.408;16.826;2022-12-07T06:43:30;100182.80;;;5.19;80.43
26436;BME280;15351;52.408;16.826;2022-12-07T06:45:57;100180.81;;;5.21;80.02
26436;BME280;15351;52.408;16.826;2022-12-07T06:48:28;100186.88;;;5.14;79.98
26436;BME280;15351;52.408;16.826;2022-12-07T06:50:54;100188.36;;;5.12;79.89
26436;BME280;15351;52.408;16.826;2022-12-07T06:53:22;100187.44;;;5.04;79.66
26436;BME280;15351;52.408;16.826;2022-12-07T06:55:49;100181.97;;;4.96;79.63
26436;BME280;15351;52.408;16.826;2022-12-07T06:58:16;100187.41;;;4.91;79.77
26436;BME280;15351;52.408;16.826;2022-12-07T07:00:44;100181.45;;;4.83;79.91
26436;BME280;15351;52.408;16.826;2022-12-07T07:03:11;100175.27;;;4.83;80.13
26436;BME280;15351;52.408;16.826;2022-12-07T07:05:39;100185.95;;;4.83;80.24
26436;BME280;15351;52.408;16.826;2022-12-07T07:08:07;100182.93;;;4.82;80.28
26436;BME280;15351;52.408;16.826;2022-12-07T07:10:36;100178.36;;;4.88;80.48
26436;BME280;15351;52.408;16.826;2022-12-07T07:13:03;100177.22;;;4.90;80.37
26436;BME280;15351;52.408;16.826;2022-12-07T07:15:31;100176.19;;;4.87;80.36
26436;BME280;15351;52.408;16.826;2022-12-07T07:18:00;100173.92;;;4.83;80.42
26436;BME280;15351;52.408;16.826;2022-12-07T07:20:29;100185.25;;;4.81;80.64
26436;BME280;15351;52.408;16.826;2022-12-07T07:22:58;100185.25;;;4.81;80.64
26436;BME280;15351;52.408;16.826;2022-12-07T07:25:24;100180.91;;;4.80;80.74
26436;BME280;15351;52.408;16.826;2022-12-07T07:27:50;100184.22;;;4.78;80.77
26436;BME280;15351;52.408;16.826;2022-12-07T07:30:17;100183.13;;;4.71;80.77
26436;BME280;15351;52.408;16.826;2022-12-07T07:32:43;100172.16;;;4.65;80.66
26436;BME280;15351;52.408;16.826;2022-12-07T07:35:10;100167.81;;;4.64;80.88
26436;BME280;15351;52.408;16.826;2022-12-07T07:37:36;100175.38;;;4.68;80.93
26436;BME280;15351;52.408;16.826;2022-12-07T07:40:03;100165.98;;;4.64;80.94
26436;BME280;15351;52.408;16.826;2022-12-07T07:42:31;100162.62;;;4.62;81.03
26436;BME280;15351;52.408;16.826;2022-12-07T07:45:01;100175.03;;;4.67;81.10
26436;BME280;15351;52.408;16.826;2022-12-07T07:47:29;100166.33;;;4.65;81.04
26436;BME280;15351;52.408;16.826;2022-12-07T07:49:55;100170.88;;;4.69;80.97
26436;BME280;15351;52.408;16.826;2022-12-07T07:52:23;100168.36;;;4.67;80.74
26436;BME280;15351;52.408;16.826;2022-12-07T07:54:58;100174.29;;;4.62;80.34
26436;BME280;15351;52.408;16.826;2022-12-07T08:01:05;100171.22;;;4.57;80.58
26436;BME280;15351;52.408;16.826;2022-12-07T08:03:34;100160.94;;;4.62;80.48
26436;BME280;15351;52.408;16.826;2022-12-07T08:06:02;100163.02;;;4.67;80.11
26436;BME280;15351;52.408;16.826;2022-12-07T08:08:30;100160.48;;;4.66;80.10
26436;BME280;15351;52.408;16.826;2022-12-07T08:10:58;100161.07;;;4.69;80.23
26436;BME280;15351;52.408;16.826;2022-12-07T08:13:26;100155.08;;;4.71;80.30
26436;BME280;15351;52.408;16.826;2022-12-07T08:15:55;100129.41;;;4.52;80.10
26436;BME280;15351;52.408;16.826;2022-12-07T08:18:22;100150.65;;;4.66;80.21
26436;BME280;15351;52.408;16.826;2022-12-07T08:21:03;100148.55;;;4.70;80.25
26436;BME280;15351;52.408;16.826;2022-12-07T08:23:31;100154.95;;;4.63;80.00
26436;BME280;15351;52.408;16.826;2022-12-07T08:26:06;100156.44;;;4.62;80.18
26436;BME280;15351;52.408;16.826;2022-12-07T08:28:34;100161.43;;;4.61;80.00
26436;BME280;15351;52.408;16.826;2022-12-07T08:31:05;100136.17;;;4.46;80.00
26436;BME280;15351;52.408;16.826;2022-12-07T08:33:34;100158.63;;;4.53;79.93
26436;BME280;15351;52.408;16.826;2022-12-07T08:36:03;100149.16;;;4.55;79.98
26436;BME280;15351;52.408;16.826;2022-12-07T08:38:31;100152.25;;;4.50;79.93
26436;BME280;15351;52.408;16.826;2022-12-07T08:40:59;100143.69;;;4.47;80.06
26436;BME280;15351;52.408;16.826;2022-12-07T08:43:26;100145.66;;;4.45;80.11
26436;BME280;15351;52.408;16.826;2022-12-07T08:46:17;100151.84;;;4.45;80.28
26436;BME280;15351;52.408;16.826;2022-12-07T08:48:57;100150.72;;;4.48;80.07
26436;BME280;15351;52.408;16.826;2022-12-07T08:51:23;100144.20;;;4.37;79.81
26436;BME280;15351;52.408;16.826;2022-12-07T08:53:52;100141.82;;;4.34;80.05
26436;BME280;15351;52.408;16.826;2022-12-07T08:56:22;100136.77;;;4.40;80.07
26436;BME280;15351;52.408;16.826;2022-12-07T08:58:48;100131.63;;;4.43;80.08
26436;BME280;15351;52.408;16.826;2022-12-07T09:01:16;100128.95;;;4.43;80.01
26436;BME280;15351;52.408;16.826;2022-12-07T09:03:43;100128.11;;;4.42;79.85
26436;BME280;15351;52.408;16.826;2022-12-07T09:06:10;100137.41;;;4.39;79.92
26436;BME280;15351;52.408;16.826;2022-12-07T09:08:40;100127.78;;;4.32;80.04
26436;BME280;15351;52.408;16.826;2022-12-07T09:11:09;100122.94;;;4.32;80.15
26436;BME280;15351;52.408;16.826;2022-12-07T09:13:36;100108.89;;;4.30;80.19
26436;BME280;15351;52.408;16.826;2022-12-07T09:16:04;100118.83;;;4.37;80.33
26436;BME280;15351;52.408;16.826;2022-12-07T09:18:34;100116.27;;;4.32;80.04
26436;BME280;15351;52.408;16.826;2022-12-07T09:21:00;100110.03;;;4.27;80.12
26436;BME280;15351;52.408;16.826;2022-12-07T09:23:27;100109.63;;;4.22;80.24
26436;BME280;15351;52.408;16.826;2022-12-07T09:25:58;100108.21;;;4.18;80.34
26436;BME280;15351;52.408;16.826;2022-12-07T09:28:27;100100.89;;;4.20;80.48
26436;BME280;15351;52.408;16.826;2022-12-07T09:30:53;100101.24;;;4.21;80.55
26436;BME280;15351;52.408;16.826;2022-12-07T09:33:21;100098.36;;;4.28;80.66
26436;BME280;15351;52.408;16.826;2022-12-07T09:35:51;100097.33;;;4.25;80.63
26436;BME280;15351;52.408;16.826;2022-12-07T09:38:20;100087.98;;;4.25;80.88
26436;BME280;15351;52.408;16.826;2022-12-07T09:40:47;100093.92;;;4.33;81.01
26436;BME280;15351;52.408;16.826;2022-12-07T09:43:20;100085.47;;;4.37;80.95
26436;BME280;15351;52.408;16.826;2022-12-07T09:45:52;100080.13;;;4.37;80.64
26436;BME280;15351;52.408;16.826;2022-12-07T09:48:34;100082.69;;;4.39;80.92
26436;BME280;15351;52.408;16.826;2022-12-07T09:51:18;100074.79;;;4.37;80.80
26436;BME280;15351;52.408;16.826;2022-12-07T09:53:48;100071.53;;;4.30;80.65
26436;BME280;15351;52.408;16.826;2022-12-07T09:56:17;100072.17;;;4.28;80.86
26436;BME280;15351;52.408;16.826;2022-12-07T09:58:45;100064.80;;;4.26;80.67
26436;BME280;15351;52.408;16.826;2022-12-07T10:01:17;100061.30;;;4.25;80.92
26436;BME280;15351;52.408;16.826;2022-12-07T10:03:54;100062.83;;;4.28;81.09
26436;BME280;15351;52.408;16.826;2022-12-07T10:06:24;100057.19;;;4.31;81.03
26436;BME280;15351;52.408;16.826;2022-12-07T10:08:50;100058.03;;;4.31;81.20
26436;BME280;15351;52.408;16.826;2022-12-07T10:11:17;100061.82;;;4.38;81.16
26436;BME280;15351;52.408;16.826;2022-12-07T10:13:48;100051.83;;;4.40;80.80
26436;BME280;15351;52.408;16.826;2022-12-07T10:19:21;100044.59;;;4.23;80.84
26436;BME280;15351;52.408;16.826;2022-12-07T10:22:15;100042.91;;;4.22;81.02
26436;BME280;15351;52.408;16.826;2022-12-07T10:24:46;100040.16;;;4.18;80.96
26436;BME280;15351;52.408;16.826;2022-12-07T10:27:22;100045.15;;;4.18;80.89
26436;BME280;15351;52.408;16.826;2022-12-07T10:29:54;100035.28;;;4.05;80.64
26436;BME280;15351;52.408;16.826;2022-12-07T10:32:35;100040.56;;;4.01;80.89
26436;BME280;15351;52.408;16.826;2022-12-07T10:37:54;100045.95;;;4.05;81.13
26436;BME280;15351;52.408;16.826;2022-12-07T10:40:30;100041.90;;;4.01;80.92
26436;BME280;15351;52.408;16.826;2022-12-07T10:43:17;100041.20;;;3.99;80.92
26436;BME280;15351;52.408;16.826;2022-12-07T10:54:27;100021.68;;;4.08;81.55
26436;BME280;15351;52.408;16.826;2022-12-07T10:59:59;100013.67;;;4.08;81.46
26436;BME280;15351;52.408;16.826;2022-12-07T11:08:01;100011.75;;;4.14;81.87
26436;BME280;15351;52.408;16.826;2022-12-07T11:10:50;100000.21;;;4.22;81.96
26436;BME280;15351;52.408;16.826;2022-12-07T11:13:34;99987.48;;;4.20;81.48
26436;BME280;15351;52.408;16.826;2022-12-07T11:16:16;99983.47;;;4.20;81.52
26436;BME280;15351;52.408;16.826;2022-12-07T11:22:01;99983.38;;;4.13;81.63
26436;BME280;15351;52.408;16.826;2022-12-07T11:24:52;99978.55;;;4.12;81.73
26436;BME280;15351;52.408;16.826;2022-12-07T11:27:38;99976.67;;;4.09;81.57
26436;BME280;15351;52.408;16.826;2022-12-07T11:30:32;99975.84;;;3.99;81.31
26436;BME280;15351;52.408;16.826;2022-12-07T11:38:57;99971.42;;;3.81;81.68
26436;BME280;15351;52.408;16.826;2022-12-07T11:41:35;99966.14;;;3.85;81.68
26436;BME280;15351;52.408;16.826;2022-12-07T11:44:27;99963.13;;;3.84;81.78
26436;BME280;15351;52.408;16.826;2022-12-07T11:50:14;99960.14;;;3.96;82.28
26436;BME280;15351;52.408;16.826;2022-12-07T11:52:48;99955.00;;;3.98;82.33
26436;BME280;15351;52.408;16.826;2022-12-07T12:03:52;99941.38;;;4.15;83.03
26436;BME280;15351;52.408;16.826;2022-12-07T12:06:20;99939.25;;;4.18;83.02
26436;BME280;15351;52.408;16.826;2022-12-07T12:14:48;99931.94;;;4.33;82.96
26436;BME280;15351;52.408;16.826;2022-12-07T12:23:27;99936.39;;;4.42;83.17
26436;BME280;15351;52.408;16.826;2022-12-07T12:26:06;99930.71;;;4.41;83.17
26436;BME280;15351;52.408;16.826;2022-12-07T12:28:41;99924.11;;;4.49;83.27
26436;BME280;15351;52.408;16.826;2022-12-07T12:34:03;99924.56;;;4.58;83.25
26436;BME280;15351;52.408;16.826;2022-12-07T12:36:49;99926.55;;;4.56;83.16
26436;BME280;15351;52.408;16.826;2022-12-07T12:39:17;99930.55;;;4.56;83.26
26436;BME280;15351;52.408;16.826;2022-12-07T12:41:56;99924.59;;;4.62;83.45
26436;BME280;15351;52.408;16.826;2022-12-07T12:50:27;99890.66;;;4.54;83.08
26436;BME280;15351;52.408;16.826;2022-12-07T12:53:05;99924.81;;;4.68;83.06
26436;BME280;15351;52.408;16.826;2022-12-07T12:58:41;99917.80;;;4.67;83.17
26436;BME280;15351;52.408;16.826;2022-12-07T13:07:53;99914.45;;;4.52;82.78
26436;BME280;15351;52.408;16.826;2022-12-07T13:10:32;99921.75;;;4.46;82.81
26436;BME280;15351;52.408;16.826;2022-12-07T13:18:36;99925.36;;;4.54;83.06
26436;BME280;15351;52.408;16.826;2022-12-07T13:26:36;99932.16;;;4.53;83.15
26436;BME280;15351;52.408;16.826;2022-12-07T13:31:54;99940.43;;;4.59;83.07
26436;BME280;15351;52.408;16.826;2022-12-07T13:34:36;99943.62;;;4.62;83.11
26436;BME280;15351;52.408;16.826;2022-12-07T13:37:14;99959.30;;;4.75;83.33
26436;BME280;15351;52.408;16.826;2022-12-07T13:39:47;99958.28;;;4.89;83.30
26436;BME280;15351;52.408;16.826;2022-12-07T13:42:27;99958.97;;;4.91;82.94
26436;BME280;15351;52.408;16.826;2022-12-07T13:44:58;99952.11;;;5.06;82.93
26436;BME280;15351;52.408;16.826;2022-12-07T13:53:00;99963.66;;;5.27;82.05
26436;BME280;15351;52.408;16.826;2022-12-07T13:55:29;99966.09;;;5.38;81.77
26436;BME280;15351;52.408;16.826;2022-12-07T13:57:56;99966.78;;;5.40;81.18
26436;BME280;15351;52.408;16.826;2022-12-07T14:00:28;99972.78;;;5.38;80.54
26436;BME280;15351;52.408;16.826;2022-12-07T14:03:02;99972.36;;;5.29;80.59
26436;BME280;15351;52.408;16.826;2022-12-07T14:05:34;99976.68;;;5.26;80.74
26436;BME280;15351;52.408;16.826;2022-12-07T14:08:04;99975.71;;;5.31;80.77
26436;BME280;15351;52.408;16.826;2022-12-07T14:10:36;99970.42;;;5.35;80.42
26436;BME280;15351;52.408;16.826;2022-12-07T14:13:37;99981.89;;;5.31;80.09
26436;BME280;15351;52.408;16.826;2022-12-07T14:16:26;99984.78;;;5.34;79.95
26436;BME280;15351;52.408;16.826;2022-12-07T14:19:01;99985.13;;;5.35;79.51
26436;BME280;15351;52.408;16.826;2022-12-07T14:21:34;99990.57;;;5.29;79.57
26436;BME280;15351;52.408;16.826;2022-12-07T14:24:18;99989.34;;;5.20;78.72
26436;BME280;15351;52.408;16.826;2022-12-07T14:26:50;99997.07;;;5.10;78.83
26436;BME280;15351;52.408;16.826;2022-12-07T14:35:17;99996.78;;;5.00;79.25
26436;BME280;15351;52.408;16.826;2022-12-07T14:38:04;99997.74;;;4.95;79.01
26436;BME280;15351;52.408;16.826;2022-12-07T14:43:54;100000.76;;;4.96;79.29
26436;BME280;15351;52.408;16.826;2022-12-07T14:49:53;100019.73;;;4.76;79.00
26436;BME280;15351;52.408;16.826;2022-12-07T14:55:58;100002.45;;;4.40;79.21
26436;BME280;15351;52.408;16.826;2022-12-07T14:58:47;100024.00;;;4.42;79.50
26436;BME280;15351;52.408;16.826;2022-12-07T15:01:26;100028.15;;;4.41;79.62
26436;BME280;15351;52.408;16.826;2022-12-07T15:04:16;100023.50;;;4.43;79.51
26436;BME280;15351;52.408;16.826;2022-12-07T15:06:58;100025.57;;;4.49;79.32
26436;BME280;15351;52.408;16.826;2022-12-07T15:09:24;100024.38;;;4.47;79.27
26436;BME280;15351;52.408;16.826;2022-12-07T15:11:50;100037.28;;;4.52;79.22
26436;BME280;15351;52.408;16.826;2022-12-07T15:14:17;100035.45;;;4.52;78.94
26436;BME280;15351;52.408;16.826;2022-12-07T15:16:46;100032.45;;;4.38;78.48
26436;BME280;15351;52.408;16.826;2022-12-07T15:19:16;100038.41;;;4.36;78.42
26436;BME280;15351;52.408;16.826;2022-12-07T15:21:56;100035.09;;;4.25;78.42
26436;BME280;15351;52.408;16.826;2022-12-07T15:24:26;100030.81;;;4.18;78.75
26436;BME280;15351;52.408;16.826;2022-12-07T15:26:54;100034.42;;;4.14;78.71
26436;BME280;15351;52.408;16.826;2022-12-07T15:29:21;100039.42;;;4.13;78.45
26436;BME280;15351;52.408;16.826;2022-12-07T15:31:49;100045.91;;;4.01;78.31
26436;BME280;15351;52.408;16.826;2022-12-07T15:34:16;100055.39;;;3.90;78.57